Time;durP1;ratioP1;P1;durP2;ratioP2;P2;SDS_P1;SDS_P2;PMS_P1;PMS_P2;Temp;Humidity;BMP_temperature;BMP_pressure;BME280_temperature;BME280_humidity;BME280_pressure;Samples;Min_cycle;Max_cycle;Signal;HPM_P1;HPM_P2
2023/09/01 00:00:28;;;;;;;5.70;1.20;;;;;;;11.63;87.14;100144.31;107677;1272;22524;-77
2023/09/01 00:03:21;;;;;;;5.90;1.20;;;;;;;11.59;87.09;100144.52;107606;1266;23326;-77
2023/09/01 00:05:52;;;;;;;6.30;1.30;;;;;;;11.53;87.23;100143.56;107764;1267;22524;-77
2023/09/01 00:08:25;;;;;;;5.40;1.10;;;;;;;11.48;87.33;100149.30;107738;1269;22540;-77
2023/09/01 00:10:56;;;;;;;4.70;0.90;;;;;;;11.42;87.33;100149.94;107568;1272;22510;-77
2023/09/01 00:13:26;;;;;;;7.10;1.10;;;;;;;11.37;87.20;100148.23;107482;1269;22546;-77
2023/09/01 00:15:57;;;;;;;4.10;1.10;;;;;;;11.32;87.51;100149.32;107503;1273;24169;-77
2023/09/01 00:18:30;;;;;;;5.50;1.10;;;;;;;11.27;87.52;100151.98;107477;1270;25003;-76
2023/09/01 00:21:03;;;;;;;10.20;1.40;;;;;;;11.22;87.49;100154.57;107500;1269;27540;-76
2023/09/01 00:23:34;;;;;;;6.00;1.40;;;;;;;11.20;87.77;100159.91;107611;1269;25344;-77
2023/09/01 00:26:05;;;;;;;9.40;1.10;;;;;;;11.18;88.02;100159.68;107602;1273;22512;-77
2023/09/01 00:28:35;;;;;;;5.80;1.20;;;;;;;11.17;88.17;100159.16;107802;1266;22634;-77
2023/09/01 00:31:06;;;;;;;6.00;1.30;;;;;;;11.16;88.25;100160.27;107803;1269;27537;-77
2023/09/01 00:33:37;;;;;;;5.10;1.10;;;;;;;11.16;88.43;100167.48;107675;1265;22551;-77
2023/09/01 00:36:07;;;;;;;5.60;1.50;;;;;;;11.17;88.73;100173.67;107729;1269;22522;-77
2023/09/01 00:38:38;;;;;;;6.80;1.20;;;;;;;11.18;89.14;100172.17;107703;1267;23401;-77
2023/09/01 00:41:09;;;;;;;6.70;1.20;;;;;;;11.21;89.39;100166.17;107663;1269;22544;-77
2023/09/01 00:43:40;;;;;;;5.90;1.40;;;;;;;11.24;89.63;100167.19;107597;1266;25658;-76
2023/09/01 00:46:10;;;;;;;7.40;1.50;;;;;;;11.26;89.86;100171.20;107711;1267;22630;-77
2023/09/01 00:48:41;;;;;;;7.20;1.20;;;;;;;11.30;90.00;100165.66;107762;1269;26519;-77
2023/09/01 00:51:12;;;;;;;7.60;1.60;;;;;;;11.33;90.14;100165.69;107766;1266;24285;-77
2023/09/01 00:53:43;;;;;;;8.70;1.60;;;;;;;11.36;90.18;100158.80;107652;1266;22622;-77
2023/09/01 00:56:14;;;;;;;7.90;1.50;;;;;;;11.41;90.33;100156.15;107716;1267;23416;-77
2023/09/01 00:58:44;;;;;;;7.50;1.40;;;;;;;11.45;90.34;100153.11;107701;1273;22563;-77
2023/09/01 01:01:15;;;;;;;6.80;1.30;;;;;;;11.49;90.48;100151.70;107683;1269;22515;-77
2023/09/01 01:03:47;;;;;;;6.20;1.40;;;;;;;11.53;90.48;100155.30;107548;1269;22522;-77
2023/09/01 01:06:35;;;;;;;5.70;1.30;;;;;;;11.56;90.86;100160.63;110589;1272;22218;-78
2023/09/01 01:09:18;;;;;;;8.80;1.70;;;;;;;11.59;90.69;100156.92;110556;1273;22321;-78
2023/09/01 01:11:54;;;;;;;4.80;1.60;;;;;;;11.64;91.02;100160.03;110576;1272;23519;-77
2023/09/01 01:14:31;;;;;;;5.80;1.00;;;;;;;11.67;90.88;100160.90;110538;1273;22410;-77
2023/09/01 01:17:05;;;;;;;5.90;1.30;;;;;;;11.70;90.78;100167.57;110503;1267;22969;-78
2023/09/01 01:19:45;;;;;;;5.40;1.20;;;;;;;11.75;90.97;100166.05;110580;1273;22302;-77
2023/09/01 01:22:20;;;;;;;5.80;1.30;;;;;;;11.79;90.94;100163.20;110583;1272;22271;-77
2023/09/01 01:24:51;;;;;;;4.80;1.40;;;;;;;11.83;90.95;100157.21;110528;1272;22200;-77
2023/09/01 01:27:22;;;;;;;4.00;0.90;;;;;;;11.86;90.78;100156.23;110541;1273;22187;-77
2023/09/01 01:29:53;;;;;;;6.10;1.10;;;;;;;11.90;91.04;100154.08;110595;1273;22173;-77
2023/09/01 01:32:24;;;;;;;4.10;1.10;;;;;;;11.93;91.06;100148.63;110535;1273;22970;-77
2023/09/01 01:35:08;;;;;;;7.30;1.00;;;;;;;11.96;91.15;100152.93;110507;1273;22310;-77
2023/09/01 01:37:43;;;;;;;5.50;1.00;;;;;;;11.97;90.76;100147.82;110599;1270;23667;-78
2023/09/01 01:40:15;;;;;;;7.10;1.10;;;;;;;11.98;90.63;100147.02;110563;1273;22297;-77
2023/09/01 01:42:48;;;;;;;7.50;1.50;;;;;;;12.00;90.63;100142.61;110549;1273;22730;-77
2023/09/01 01:45:22;;;;;;;7.10;1.30;;;;;;;12.01;90.76;100142.63;110624;1269;23235;-77
2023/09/01 01:47:54;;;;;;;7.40;1.20;;;;;;;12.01;90.47;100141.16;110504;1273;22214;-77
2023/09/01 01:50:24;;;;;;;6.30;1.20;;;;;;;12.01;90.38;100140.39;110513;1273;22165;-77
2023/09/01 01:52:55;;;;;;;4.90;1.20;;;;;;;12.00;90.27;100140.44;110399;1273;222915;-77
2023/09/01 01:55:26;;;;;;;6.10;1.20;;;;;;;11.99;90.28;100137.27;110609;1273;22684;-77
2023/09/01 01:57:57;;;;;;;6.30;1.00;;;;;;;11.96;90.04;100140.13;110552;1273;22144;-77
2023/09/01 02:00:28;;;;;;;6.80;1.20;;;;;;;11.95;89.89;100141.33;110578;1272;22137;-77
2023/09/01 02:02:58;;;;;;;6.70;1.30;;;;;;;11.93;89.94;100144.25;110560;1269;22211;-77
2023/09/01 02:05:29;;;;;;;4.40;1.00;;;;;;;11.90;89.73;100147.92;110617;1273;22153;-77
2023/09/01 02:08:00;;;;;;;7.30;1.00;;;;;;;11.87;89.70;100151.15;110550;1273;22397;-77
2023/09/01 02:10:31;;;;;;;4.60;1.10;;;;;;;11.85;89.79;100151.59;110573;1269;22199;-77
2023/09/01 02:13:04;;;;;;;7.20;0.90;;;;;;;11.82;89.89;100144.84;110616;1261;22239;-77
2023/09/01 02:15:34;;;;;;;4.70;1.00;;;;;;;11.80;89.89;100147.01;110621;1273;22169;-77
2023/09/01 02:18:08;;;;;;;6.80;1.20;;;;;;;11.80;90.04;100143.42;110681;1273;22159;-77
2023/09/01 02:20:39;;;;;;;5.00;1.00;;;;;;;11.78;90.05;100144.58;110751;1273;22875;-77
2023/09/01 02:23:09;;;;;;;7.10;1.50;;;;;;;11.75;90.07;100141.29;110760;1261;22299;-76
2023/09/01 02:25:40;;;;;;;4.70;1.00;;;;;;;11.72;90.17;100143.63;110568;1273;23256;-77
2023/09/01 02:28:11;;;;;;;5.70;1.10;;;;;;;11.71;90.08;100149.58;110587;1273;22239;-77
2023/09/01 02:30:42;;;;;;;5.10;1.10;;;;;;;11.68;90.12;100147.15;110609;1269;22220;-77
2023/09/01 02:33:14;;;;;;;6.30;1.00;;;;;;;11.66;90.28;100151.13;110609;1273;22356;-77
2023/09/01 02:35:45;;;;;;;5.00;1.10;;;;;;;11.63;90.31;100155.34;110596;1273;22130;-77
2023/09/01 02:38:16;;;;;;;6.40;1.20;;;;;;;11.61;90.59;100156.98;110591;1273;22141;-77
2023/09/01 02:40:47;;;;;;;5.90;1.00;;;;;;;11.60;90.73;100157.60;110591;1273;22423;-77
2023/09/01 02:43:17;;;;;;;4.50;1.10;;;;;;;11.60;90.92;100155.61;110558;1273;22221;-77
2023/09/01 02:45:48;;;;;;;8.00;1.00;;;;;;;11.60;91.06;100153.46;110579;1273;24713;-77
2023/09/01 02:48:19;;;;;;;4.70;1.10;;;;;;;11.59;91.17;100153.41;110596;1273;22744;-77
2023/09/01 02:50:50;;;;;;;5.50;1.30;;;;;;;11.59;91.11;100150.70;110520;1273;22334;-76
2023/09/01 02:53:20;;;;;;;11.10;1.50;;;;;;;11.59;91.12;100155.17;110561;1273;22899;-76
2023/09/01 02:55:51;;;;;;;8.50;1.40;;;;;;;11.58;91.19;100154.11;110579;1269;22628;-76
2023/09/01 02:58:22;;;;;;;5.80;1.40;;;;;;;11.57;91.19;100156.67;110518;1273;23053;-76
2023/09/01 03:00:53;;;;;;;5.80;1.30;;;;;;;11.54;91.13;100160.25;110624;1262;22304;-76
2023/09/01 03:03:25;;;;;;;15.60;1.40;;;;;;;11.53;91.20;100155.71;110582;1273;23173;-76
2023/09/01 03:05:56;;;;;;;5.80;1.10;;;;;;;11.53;91.22;100157.85;110577;1273;22157;-76
2023/09/01 03:08:27;;;;;;;4.50;0.90;;;;;;;11.51;91.14;100153.40;110618;1273;22206;-76
2023/09/01 03:10:57;;;;;;;7.20;1.10;;;;;;;11.49;91.22;100151.54;110555;1273;22344;-76
2023/09/01 03:13:28;;;;;;;6.40;1.20;;;;;;;11.49;91.29;100155.92;110556;1273;22189;-76
2023/09/01 03:15:59;;;;;;;7.70;1.30;;;;;;;11.50;91.26;100157.86;110576;1273;22179;-76
2023/09/01 03:18:30;;;;;;;7.50;1.20;;;;;;;11.48;91.10;100161.65;110615;1273;22131;-76
2023/09/01 03:21:11;;;;;;;5.10;1.10;;;;;;;11.45;90.98;100165.83;110546;1273;22307;-77
2023/09/01 03:23:42;;;;;;;5.30;1.10;;;;;;;11.40;90.65;100166.41;110597;1273;22715;-77
2023/09/01 03:26:13;;;;;;;7.10;1.10;;;;;;;11.35;90.73;100164.00;110585;1273;22184;-76
2023/09/01 03:28:44;;;;;;;7.40;1.20;;;;;;;11.30;90.73;100167.33;110608;1273;23245;-76
2023/09/01 03:31:15;;;;;;;6.70;1.10;;;;;;;11.24;90.69;100160.79;110613;1273;22234;-76
2023/09/01 03:33:46;;;;;;;6.80;1.00;;;;;;;11.18;90.43;100162.07;110578;1269;22223;-76
2023/09/01 03:36:17;;;;;;;4.00;1.00;;;;;;;11.15;90.64;100164.92;110603;1273;22181;-76
2023/09/01 03:38:48;;;;;;;7.00;1.10;;;;;;;11.09;90.42;100162.23;110561;1273;22542;-76
2023/09/01 03:41:19;;;;;;;7.40;1.50;;;;;;;11.03;90.64;100161.53;110582;1273;22975;-76
2023/09/01 03:43:53;;;;;;;7.40;1.20;;;;;;;10.97;90.76;100164.41;110604;1273;22606;-76
2023/09/01 03:46:23;;;;;;;4.90;1.10;;;;;;;10.92;90.71;100164.20;110543;1273;22169;-76
2023/09/01 03:48:54;;;;;;;8.90;1.20;;;;;;;10.88;90.70;100163.38;110635;1269;22430;-76
2023/09/01 03:51:25;;;;;;;7.90;1.10;;;;;;;10.84;90.62;100162.33;110582;1272;22190;-77
2023/09/01 03:53:55;;;;;;;6.10;1.30;;;;;;;10.81;90.62;100162.84;110604;1268;22191;-77
2023/09/01 03:56:26;;;;;;;5.90;1.10;;;;;;;10.78;90.71;100157.67;110595;1272;22143;-77
2023/09/01 03:58:57;;;;;;;5.20;1.10;;;;;;;10.73;90.62;100161.81;110568;1273;22211;-77
2023/09/01 04:01:27;;;;;;;5.70;1.00;;;;;;;10.70;90.70;100160.33;110572;1272;22410;-77
2023/09/01 04:03:59;;;;;;;8.50;1.20;;;;;;;10.66;90.75;100163.75;110615;1272;22313;-77
2023/09/01 04:06:30;;;;;;;8.10;1.20;;;;;;;10.62;90.76;100164.66;110614;1272;22135;-77
2023/09/01 04:09:01;;;;;;;5.20;1.10;;;;;;;10.59;90.94;100167.91;110607;1273;22510;-77
2023/09/01 04:11:32;;;;;;;5.10;1.20;;;;;;;10.56;91.03;100173.33;110576;1271;22160;-76
2023/09/01 04:14:02;;;;;;;5.70;1.00;;;;;;;10.52;91.12;100174.69;110537;1273;22174;-77
2023/09/01 04:16:33;;;;;;;4.30;1.10;;;;;;;10.51;91.17;100177.55;110577;1266;22693;-77
2023/09/01 04:19:04;;;;;;;7.00;1.50;;;;;;;10.48;91.24;100181.26;110529;1272;22275;-76
2023/09/01 04:21:34;;;;;;;5.00;1.00;;;;;;;10.44;91.32;100181.39;110537;1273;22523;-77
2023/09/01 04:24:06;;;;;;;4.20;1.20;;;;;;;10.41;91.34;100180.67;110553;1273;22141;-77
2023/09/01 04:26:36;;;;;;;5.90;1.00;;;;;;;10.40;91.49;100183.80;110538;1269;22316;-77
2023/09/01 04:29:07;;;;;;;7.10;1.30;;;;;;;10.39;91.71;100186.88;110532;1273;22965;-77
2023/09/01 04:31:38;;;;;;;7.80;1.30;;;;;;;10.38;91.92;100188.27;110467;1269;22293;-78
2023/09/01 04:34:08;;;;;;;5.30;1.20;;;;;;;10.38;92.00;100186.95;110468;1271;22331;-77
2023/09/01 04:36:39;;;;;;;8.70;1.60;;;;;;;10.38;92.14;100191.38;110533;1273;22324;-77
2023/09/01 04:39:10;;;;;;;8.20;1.60;;;;;;;10.38;92.44;100190.98;110587;1263;22332;-77
2023/09/01 04:41:41;;;;;;;8.10;1.70;;;;;;;10.40;92.65;100193.39;110567;1273;22693;-77
2023/09/01 04:44:24;;;;;;;12.10;2.10;;;;;;;10.43;92.71;100198.58;110621;1269;22237;-77
2023/09/01 04:46:55;;;;;;;10.40;1.90;;;;;;;10.48;93.13;100197.20;110636;1273;22120;-76
2023/09/01 04:49:27;;;;;;;7.20;1.90;;;;;;;10.52;93.28;100198.42;110607;1273;23316;-75
2023/09/01 04:51:57;;;;;;;8.20;1.50;;;;;;;10.57;93.36;100203.75;110538;1273;23029;-76
2023/09/01 04:54:28;;;;;;;5.50;1.60;;;;;;;10.62;93.66;100201.04;110589;1273;23126;-76
2023/09/01 04:57:01;;;;;;;8.40;1.40;;;;;;;10.67;93.80;100200.84;110571;1273;22366;-76
2023/09/01 04:59:32;;;;;;;8.60;1.50;;;;;;;10.72;93.86;100205.34;110586;1272;22991;-76
2023/09/01 05:02:03;;;;;;;10.00;1.40;;;;;;;10.78;93.95;100208.23;110606;1272;22184;-76
2023/09/01 05:04:34;;;;;;;6.70;1.50;;;;;;;10.84;94.11;100209.65;110593;1273;22254;-76
2023/09/01 05:07:05;;;;;;;4.00;1.20;;;;;;;10.90;94.22;100212.36;110616;1273;22239;-76
2023/09/01 05:09:35;;;;;;;9.40;1.50;;;;;;;10.96;94.42;100210.48;110574;1273;22840;-76
2023/09/01 05:12:07;;;;;;;7.60;1.40;;;;;;;11.04;94.29;100210.86;110607;1272;22190;-76
2023/09/01 05:14:38;;;;;;;5.50;1.30;;;;;;;11.12;94.43;100213.53;110606;1273;22362;-76
2023/09/01 05:17:08;;;;;;;6.00;1.00;;;;;;;11.20;94.46;100211.73;110617;1270;22141;-76
2023/09/01 05:19:39;;;;;;;9.20;1.30;;;;;;;11.28;94.70;100211.36;110630;1273;22323;-76
2023/09/01 05:22:10;;;;;;;11.00;1.50;;;;;;;11.35;94.56;100212.85;110617;1272;23016;-76
2023/09/01 05:24:41;;;;;;;11.90;1.40;;;;;;;11.44;94.66;100216.67;110587;1273;22337;-76
2023/09/01 05:27:11;;;;;;;8.10;1.10;;;;;;;11.52;94.93;100216.94;110644;1273;23003;-76
2023/09/01 05:29:42;;;;;;;6.30;1.30;;;;;;;11.60;94.78;100214.88;110648;1273;22442;-76
2023/09/01 05:32:13;;;;;;;7.20;1.50;;;;;;;11.67;94.79;100216.09;110636;1273;22144;-76
2023/09/01 05:34:44;;;;;;;5.70;1.20;;;;;;;11.74;94.82;100221.36;110639;1273;23065;-76
2023/09/01 05:37:15;;;;;;;6.20;1.10;;;;;;;11.80;94.73;100218.80;110603;1273;23182;-76
2023/09/01 05:39:46;;;;;;;6.60;1.40;;;;;;;11.84;94.55;100219.73;110648;1273;22148;-76
2023/09/01 05:42:16;;;;;;;8.40;1.40;;;;;;;11.89;94.57;100221.58;110601;1273;22174;-76
2023/09/01 05:44:47;;;;;;;11.40;1.30;;;;;;;11.94;94.38;100223.47;110576;1270;22873;-76
2023/09/01 05:47:18;;;;;;;9.40;1.20;;;;;;;11.99;94.42;100220.80;110601;1273;22818;-76
2023/09/01 05:49:49;;;;;;;6.10;1.30;;;;;;;12.04;94.44;100218.92;110515;1273;22419;-77
2023/09/01 05:52:19;;;;;;;11.30;1.50;;;;;;;12.10;94.45;100222.40;110557;1267;22847;-76
2023/09/01 05:54:50;;;;;;;11.40;1.70;;;;;;;12.17;94.52;100229.83;110617;1271;22157;-75
2023/09/01 05:57:21;;;;;;;6.40;1.40;;;;;;;12.24;94.59;100228.27;110737;1273;22153;-76
2023/09/01 05:59:51;;;;;;;15.40;1.60;;;;;;;12.31;94.65;100226.56;110724;1267;22602;-75
2023/09/01 06:02:22;;;;;;;13.10;1.50;;;;;;;12.38;94.78;100224.52;110628;1269;22184;-76
2023/09/01 06:04:53;;;;;;;9.00;1.30;;;;;;;12.46;94.76;100230.77;110602;1273;23035;-75
2023/09/01 06:07:24;;;;;;;10.10;1.40;;;;;;;12.54;94.78;100231.86;110643;1273;22239;-76
2023/09/01 06:09:55;;;;;;;9.20;1.60;;;;;;;12.61;94.68;100228.18;110624;1273;22262;-76
2023/09/01 06:12:25;;;;;;;9.60;1.30;;;;;;;12.69;94.64;100233.00;110583;1261;22798;-76
2023/09/01 06:14:56;;;;;;;5.50;1.10;;;;;;;12.77;94.44;100232.57;110594;1273;22427;-76
2023/09/01 06:17:27;;;;;;;6.40;1.30;;;;;;;12.84;94.40;100227.75;110589;1273;22141;-76
2023/09/01 06:19:57;;;;;;;8.10;1.30;;;;;;;12.93;94.55;100231.60;110556;1273;22165;-76
2023/09/01 06:22:28;;;;;;;8.50;1.10;;;;;;;13.01;94.36;100236.83;110580;1273;22205;-76
2023/09/01 06:25:02;;;;;;;8.90;1.20;;;;;;;13.09;94.21;100244.05;110569;1273;22945;-76
2023/09/01 06:27:37;;;;;;;9.80;1.30;;;;;;;13.16;94.34;100244.83;110583;1269;22258;-76
2023/09/01 06:30:09;;;;;;;6.50;1.20;;;;;;;13.23;94.08;100247.33;110586;1273;22219;-76
2023/09/01 06:32:40;;;;;;;8.50;1.20;;;;;;;13.30;94.03;100247.91;110585;1267;22305;-76
2023/09/01 06:35:11;;;;;;;5.10;1.20;;;;;;;13.38;94.19;100246.09;110584;1273;22166;-76
2023/09/01 06:37:42;;;;;;;4.30;1.10;;;;;;;13.48;94.17;100246.82;110566;1273;22173;-76
2023/09/01 06:40:13;;;;;;;9.20;1.20;;;;;;;13.58;94.27;100249.49;110622;1273;22135;-76
2023/09/01 06:42:44;;;;;;;6.50;1.10;;;;;;;13.67;93.95;100245.92;110615;1273;22331;-76
2023/09/01 06:45:15;;;;;;;7.80;1.30;;;;;;;13.76;93.91;100251.15;110603;1273;22513;-76
2023/09/01 06:47:46;;;;;;;4.60;1.30;;;;;;;13.86;93.77;100252.89;110635;1257;22205;-76
2023/09/01 06:50:17;;;;;;;9.90;1.40;;;;;;;13.95;93.52;100256.55;110615;1273;22267;-76
2023/09/01 06:52:48;;;;;;;7.80;1.20;;;;;;;14.05;93.17;100255.23;110584;1273;22370;-76
2023/09/01 06:55:19;;;;;;;6.10;1.20;;;;;;;14.14;93.01;100252.73;110626;1269;22203;-76
2023/09/01 06:57:49;;;;;;;9.20;1.30;;;;;;;14.23;93.08;100256.09;110641;1273;22204;-76
2023/09/01 07:00:21;;;;;;;7.80;1.10;;;;;;;14.32;92.98;100254.36;110595;1273;22171;-76
2023/09/01 07:02:52;;;;;;;6.60;1.10;;;;;;;14.40;92.45;100253.03;110599;1273;22131;-76
2023/09/01 07:05:23;;;;;;;6.90;1.00;;;;;;;14.49;91.95;100249.77;110598;1273;22926;-76
2023/09/01 07:07:54;;;;;;;7.50;1.40;;;;;;;14.60;91.36;100254.63;110632;1273;22308;-76
2023/09/01 07:10:25;;;;;;;8.30;2.90;;;;;;;14.70;91.09;100250.30;110629;1270;22173;-76
2023/09/01 07:12:56;;;;;;;16.80;3.70;;;;;;;14.81;90.88;100252.98;110610;1273;22190;-76
2023/09/01 07:15:27;;;;;;;7.90;1.80;;;;;;;14.91;90.39;100254.89;110577;1272;22150;-76
2023/09/01 07:17:58;;;;;;;7.30;1.60;;;;;;;15.01;90.52;100256.34;110638;1272;22300;-76
2023/09/01 07:20:29;;;;;;;7.80;1.70;;;;;;;15.11;90.55;100259.88;110586;1273;22153;-77
2023/09/01 07:23:00;;;;;;;10.20;2.20;;;;;;;15.21;90.27;100261.48;110603;1272;22163;-76
2023/09/01 07:25:32;;;;;;;9.80;1.90;;;;;;;15.30;89.99;100255.70;110609;1267;22425;-76
2023/09/01 07:28:03;;;;;;;8.90;1.60;;;;;;;15.40;89.96;100260.98;110593;1272;23109;-75
2023/09/01 07:30:35;;;;;;;7.00;1.50;;;;;;;15.50;89.17;100259.81;110612;1272;22187;-76
2023/09/01 07:33:09;;;;;;;8.70;1.30;;;;;;;15.59;88.60;100260.57;110618;1272;22187;-76
2023/09/01 07:35:45;;;;;;;5.80;1.00;;;;;;;15.69;88.61;100256.52;110650;1273;22320;-76
2023/09/01 07:38:16;;;;;;;7.70;1.20;;;;;;;15.78;87.87;100262.95;110605;1272;22354;-76
2023/09/01 07:40:48;;;;;;;6.20;1.00;;;;;;;15.86;87.94;100260.54;110587;1269;22972;-76
2023/09/01 07:43:18;;;;;;;10.00;0.80;;;;;;;15.94;88.05;100263.54;110622;1273;22771;-76
2023/09/01 07:45:49;;;;;;;5.70;1.00;;;;;;;16.01;87.42;100262.29;110623;1273;22158;-76
2023/09/01 07:48:20;;;;;;;6.70;0.90;;;;;;;16.10;86.88;100261.55;110562;1273;22211;-76
2023/09/01 07:50:50;;;;;;;6.60;1.00;;;;;;;16.22;86.84;100268.73;110638;1272;22944;-76
2023/09/01 07:53:21;;;;;;;5.80;1.00;;;;;;;16.33;86.41;100268.89;110603;1270;22257;-76
2023/09/01 07:55:52;;;;;;;6.70;1.00;;;;;;;16.40;86.29;100267.41;110586;1273;22173;-76
2023/09/01 07:58:23;;;;;;;3.80;0.90;;;;;;;16.48;85.44;100263.96;110616;1273;22214;-76
2023/09/01 08:00:54;;;;;;;7.10;1.20;;;;;;;16.54;85.59;100263.39;110590;1273;22272;-76
2023/09/01 08:03:25;;;;;;;6.80;1.10;;;;;;;16.62;85.22;100266.19;110588;1273;22264;-76
2023/09/01 08:05:56;;;;;;;5.70;0.90;;;;;;;16.70;85.26;100264.23;110639;1265;22172;-77
2023/09/01 08:08:27;;;;;;;6.00;1.80;;;;;;;16.79;84.72;100264.23;110637;1272;22489;-76
2023/09/01 08:10:58;;;;;;;5.30;1.00;;;;;;;16.91;84.69;100264.31;110594;1273;22202;-77
2023/09/01 08:13:29;;;;;;;5.70;1.10;;;;;;;16.99;83.69;100263.95;110608;1272;22200;-76
2023/09/01 08:16:01;;;;;;;6.40;0.90;;;;;;;17.05;83.30;100260.63;110600;1273;22170;-76
2023/09/01 08:18:33;;;;;;;5.00;0.70;;;;;;;17.12;82.93;100258.59;110567;1259;22266;-76
2023/09/01 08:21:06;;;;;;;7.70;0.90;;;;;;;17.18;82.19;100255.66;110590;1273;22226;-77
2023/09/01 08:23:40;;;;;;;4.50;0.90;;;;;;;17.23;81.20;100254.13;110629;1272;22835;-76
2023/09/01 08:26:10;;;;;;;8.20;1.00;;;;;;;17.28;81.68;100255.02;110601;1273;22336;-76
2023/09/01 08:28:41;;;;;;;7.90;1.00;;;;;;;17.36;81.40;100254.35;110616;1273;22306;-77
2023/09/01 08:31:13;;;;;;;7.10;1.10;;;;;;;17.44;81.29;100256.28;110614;1267;22298;-76
2023/09/01 08:33:44;;;;;;;7.60;1.00;;;;;;;17.56;80.50;100254.23;110621;1267;22315;-76
2023/09/01 08:36:15;;;;;;;5.90;0.80;;;;;;;17.65;80.24;100252.73;110621;1273;23083;-76
2023/09/01 08:38:46;;;;;;;6.10;0.80;;;;;;;17.74;79.85;100254.89;110622;1266;22985;-76
2023/09/01 08:41:17;;;;;;;5.80;0.90;;;;;;;17.84;80.04;100252.42;110621;1273;22142;-76
2023/09/01 08:43:54;;;;;;;6.10;0.80;;;;;;;17.92;79.35;100253.27;110505;1273;22310;-76
2023/09/01 08:46:27;;;;;;;12.20;1.50;;;;;;;18.00;78.36;100252.32;110647;1269;22226;-77
2023/09/01 08:48:59;;;;;;;4.80;0.80;;;;;;;18.04;77.36;100255.20;110632;1273;22870;-76
2023/09/01 08:51:30;;;;;;;5.70;0.80;;;;;;;18.09;77.11;100253.55;110602;1273;22188;-77
2023/09/01 08:54:02;;;;;;;7.00;0.80;;;;;;;18.14;76.06;100252.71;110539;1263;22167;-76
2023/09/01 08:56:34;;;;;;;5.70;0.80;;;;;;;18.18;76.33;100251.38;110500;1266;22307;-76
2023/09/01 08:59:05;;;;;;;6.80;1.30;;;;;;;18.25;74.70;100247.61;110538;1273;23295;-76
2023/09/01 09:01:37;;;;;;;7.50;0.90;;;;;;;18.28;74.88;100247.88;110494;1273;22330;-76
2023/09/01 09:04:08;;;;;;;9.20;1.00;;;;;;;18.28;74.23;100252.66;110557;1270;22363;-77
2023/09/01 09:06:40;;;;;;;7.40;1.00;;;;;;;18.28;74.24;100252.95;109583;1266;25430;-77
2023/09/01 09:09:15;;;;;;;6.10;1.10;;;;;;;18.34;74.02;100256.06;107713;1269;22561;-76
2023/09/01 09:11:58;;;;;;;6.70;1.10;;;;;;;18.43;73.81;100248.79;107626;1267;22628;-77
2023/09/01 09:14:30;;;;;;;8.70;1.20;;;;;;;18.53;73.35;100246.61;107627;1266;23862;-77
2023/09/01 09:17:03;;;;;;;7.30;0.90;;;;;;;18.61;73.36;100253.19;107559;1266;22529;-77
2023/09/01 09:19:34;;;;;;;5.50;1.00;;;;;;;18.67;72.71;100252.64;107554;1272;25381;-77
2023/09/01 09:22:10;;;;;;;7.10;1.10;;;;;;;18.72;71.68;100253.33;107559;1270;24249;-76
2023/09/01 09:24:42;;;;;;;8.60;1.20;;;;;;;18.75;71.43;100252.84;107687;1273;24357;-76
2023/09/01 09:27:18;;;;;;;4.50;0.90;;;;;;;18.82;71.71;100250.18;107731;1266;24552;-77
2023/09/01 09:29:49;;;;;;;7.00;1.30;;;;;;;18.88;70.70;100249.58;107821;1272;22514;-76
2023/09/01 09:32:23;;;;;;;6.00;1.00;;;;;;;18.90;69.03;100255.19;107685;1266;23879;-77
2023/09/01 09:35:10;;;;;;;4.10;0.90;;;;;;;18.90;69.78;100249.95;110606;1273;22925;-77
2023/09/01 09:37:41;;;;;;;11.90;1.80;;;;;;;18.94;69.49;100251.27;110587;1272;22146;-77
2023/09/01 09:40:14;;;;;;;9.20;1.30;;;;;;;18.99;69.18;100253.95;110607;1262;22415;-77
2023/09/01 09:42:47;;;;;;;6.30;1.40;;;;;;;19.05;69.36;100246.28;110618;1257;22300;-77
2023/09/01 09:45:26;;;;;;;6.40;1.10;;;;;;;19.11;68.55;100253.08;110565;1266;23063;-77
2023/09/01 09:47:59;;;;;;;9.10;1.30;;;;;;;19.14;68.67;100250.68;110642;1272;22313;-77
2023/09/01 09:50:31;;;;;;;7.80;1.00;;;;;;;19.14;68.23;100252.41;110676;1272;22301;-77
2023/09/01 09:53:04;;;;;;;7.70;1.00;;;;;;;19.18;67.86;100249.77;110690;1266;22168;-77
2023/09/01 09:55:46;;;;;;;7.00;1.30;;;;;;;19.23;68.52;100250.92;110618;1261;22197;-77
2023/09/01 09:58:19;;;;;;;8.10;1.20;;;;;;;19.29;68.66;100250.61;110573;1273;22170;-77
2023/09/01 10:00:54;;;;;;;10.20;1.00;;;;;;;19.34;67.98;100252.16;110561;1266;22339;-77
2023/09/01 10:03:29;;;;;;;12.20;1.20;;;;;;;19.36;67.58;100249.83;110594;1266;22203;-77
2023/09/01 10:06:00;;;;;;;6.00;1.30;;;;;;;19.41;67.87;100244.34;110521;1254;22360;-77
2023/09/01 10:08:33;;;;;;;4.90;0.80;;;;;;;19.47;67.79;100242.11;110572;1253;22195;-77
2023/09/01 10:11:04;;;;;;;3.60;0.90;;;;;;;19.53;67.68;100242.44;110563;1273;22192;-78
2023/09/01 10:13:37;;;;;;;6.20;1.30;;;;;;;19.57;67.32;100244.59;110599;1273;22199;-77
2023/09/01 10:16:09;;;;;;;6.90;1.00;;;;;;;19.62;67.13;100247.30;110570;1273;23295;-77
2023/09/01 10:18:42;;;;;;;9.10;1.10;;;;;;;19.67;66.24;100247.69;110582;1272;22315;-78
2023/09/01 10:21:14;;;;;;;8.70;0.90;;;;;;;19.70;66.00;100246.34;110596;1273;22115;-78
2023/09/01 10:23:45;;;;;;;6.60;1.00;;;;;;;19.70;64.64;100244.20;110612;1272;23070;-78
2023/09/01 10:26:24;;;;;;;8.30;1.00;;;;;;;19.68;65.02;100244.64;110592;1273;22721;-78
2023/09/01 10:29:00;;;;;;;7.80;1.00;;;;;;;19.69;64.67;100253.27;110580;1272;22474;-77
2023/09/01 10:31:33;;;;;;;7.00;0.80;;;;;;;19.67;64.12;100253.46;110591;1273;23075;-77
2023/09/01 10:34:12;;;;;;;5.00;1.00;;;;;;;19.69;63.82;100254.34;110548;1273;23197;-77
2023/09/01 10:36:44;;;;;;;6.10;0.80;;;;;;;19.76;63.54;100248.98;110602;1272;22288;-77
2023/09/01 10:39:32;;;;;;;6.50;1.00;;;;;;;19.80;63.02;100248.95;110579;1257;22948;-77
2023/09/01 10:42:07;;;;;;;4.00;0.80;;;;;;;19.82;62.96;100247.26;110528;1269;22141;-78
2023/09/01 10:45:12;;;;;;;8.50;1.00;;;;;;;19.78;62.06;100248.77;110568;1272;22150;-78
2023/09/01 10:47:51;;;;;;;7.10;1.00;;;;;;;19.73;62.97;100249.79;110588;1272;23092;-78
2023/09/01 10:50:23;;;;;;;5.90;1.10;;;;;;;19.79;63.26;100249.05;110572;1266;22138;-78
2023/09/01 10:53:30;;;;;;;6.80;1.00;;;;;;;19.84;62.75;100243.05;110517;1266;22395;-78
2023/09/01 10:56:15;;;;;;;5.60;1.60;;;;;;;19.91;63.14;100239.42;110519;1267;22224;-77
2023/09/01 10:58:50;;;;;;;6.80;1.00;;;;;;;19.97;62.92;100239.05;110566;1272;22251;-76
2023/09/01 11:01:38;;;;;;;8.40;1.00;;;;;;;20.00;62.05;100240.79;110572;1257;22353;-77
2023/09/01 11:04:30;;;;;;;7.70;1.70;;;;;;;19.96;61.68;100236.17;110542;1272;22176;-77
2023/09/01 11:07:08;;;;;;;8.40;1.20;;;;;;;19.94;61.23;100234.36;110577;1272;22399;-77
2023/09/01 11:09:58;;;;;;;8.40;1.60;;;;;;;19.93;61.44;100225.16;110563;1266;22181;-77
2023/09/01 11:12:35;;;;;;;5.60;1.20;;;;;;;19.98;62.20;100225.89;110590;1266;22251;-77
2023/09/01 11:15:07;;;;;;;11.20;1.30;;;;;;;20.07;62.42;100228.89;110559;1272;22200;-77
2023/09/01 11:17:45;;;;;;;9.10;1.10;;;;;;;20.20;62.31;100227.23;110587;1272;22171;-77
2023/09/01 11:20:19;;;;;;;5.00;0.90;;;;;;;20.28;61.89;100223.45;110569;1266;22182;-77
2023/09/01 11:22:51;;;;;;;6.90;1.10;;;;;;;20.37;61.78;100223.27;110591;1272;22280;-77
2023/09/01 11:25:23;;;;;;;6.60;0.90;;;;;;;20.43;61.45;100222.55;110602;1272;22182;-77
2023/09/01 11:27:54;;;;;;;11.20;1.30;;;;;;;20.52;61.22;100223.77;110626;1267;22145;-77
2023/09/01 11:30:25;;;;;;;8.60;1.10;;;;;;;20.57;60.81;100220.76;110584;1273;22183;-77
2023/09/01 11:32:56;;;;;;;6.30;0.60;;;;;;;20.59;59.96;100218.70;110595;1273;22167;-77
2023/09/01 11:35:29;;;;;;;9.60;1.60;;;;;;;20.58;60.12;100221.38;110593;1273;22196;-77
2023/09/01 11:38:01;;;;;;;4.90;0.70;;;;;;;20.57;60.13;100217.20;110578;1265;22778;-77
2023/09/01 11:40:34;;;;;;;6.80;0.90;;;;;;;20.56;59.80;100216.70;110589;1272;22156;-77